createdAt,value
2019-02-19T00:02:21.628Z,0.05
2019-02-19T00:04:48.308Z,0.00
2019-02-19T00:07:15.110Z,-0.02
2019-02-19T00:09:41.753Z,-0.02
2019-02-19T00:12:08.456Z,-0.02
2019-02-19T00:14:35.126Z,-0.02
2019-02-19T00:17:01.780Z,-0.01
2019-02-19T00:19:28.787Z,0.00
2019-02-19T00:21:55.451Z,-0.01
2019-02-19T00:24:22.343Z,-0.08
2019-02-19T00:26:48.982Z,-0.10
2019-02-19T00:29:15.559Z,-0.10
2019-02-19T00:31:42.186Z,-0.14
2019-02-19T00:34:08.886Z,-0.17
2019-02-19T00:36:35.580Z,-0.16
2019-02-19T00:39:02.762Z,-0.18
2019-02-19T00:41:29.602Z,-0.21
2019-02-19T00:43:56.287Z,-0.21
2019-02-19T00:46:22.934Z,-0.23
2019-02-19T00:48:49.506Z,-0.28
2019-02-19T00:51:16.163Z,-0.30
2019-02-19T00:53:42.769Z,-0.32
2019-02-19T00:56:09.539Z,-0.35
2019-02-19T00:58:36.262Z,-0.38
2019-02-19T01:01:03.067Z,-0.41
2019-02-19T01:03:29.747Z,-0.41
2019-02-19T01:05:56.416Z,-0.39
2019-02-19T01:08:23.100Z,-0.46
2019-02-19T01:10:49.775Z,-0.46
2019-02-19T01:13:16.455Z,-0.48
2019-02-19T01:15:43.101Z,-0.48
2019-02-19T01:18:09.852Z,-0.49
2019-02-19T01:20:36.499Z,-0.49
2019-02-19T01:23:03.162Z,-0.49
2019-02-19T01:25:31.679Z,-0.51
2019-02-19T01:27:58.474Z,-0.52
2019-02-19T01:30:25.199Z,-0.57
2019-02-19T01:32:51.902Z,-0.61
2019-02-19T01:35:18.698Z,-0.61
2019-02-19T01:37:45.358Z,-0.61
2019-02-19T01:40:12.035Z,-0.59
2019-02-19T01:42:38.687Z,-0.58
2019-02-19T01:45:06.757Z,-0.59
2019-02-19T01:47:33.520Z,-0.58
2019-02-19T01:50:00.288Z,-0.62
2019-02-19T01:52:27.035Z,-0.65
2019-02-19T01:54:53.772Z,-0.70
2019-02-19T01:57:21.688Z,-0.76
2019-02-19T01:59:49.243Z,-0.79
2019-02-19T02:02:18.025Z,-0.82
2019-02-19T02:04:44.740Z,-0.83
2019-02-19T02:07:11.541Z,-0.85
2019-02-19T02:09:38.176Z,-0.87
2019-02-19T02:12:04.964Z,-0.88
2019-02-19T02:14:31.738Z,-0.90
2019-02-19T02:16:58.395Z,-0.91
2019-02-19T02:19:25.183Z,-0.94
2019-02-19T02:21:51.855Z,-0.96
2019-02-19T02:24:18.531Z,-0.93
2019-02-19T02:26:45.210Z,-0.94
2019-02-19T02:29:11.888Z,-0.94
2019-02-19T02:31:38.653Z,-0.91
2019-02-19T02:34:05.407Z,-0.93
2019-02-19T02:36:32.071Z,-0.91
2019-02-19T02:38:58.798Z,-0.91
2019-02-19T02:41:25.466Z,-0.88
2019-02-19T02:43:52.050Z,-0.88
2019-02-19T02:46:18.831Z,-0.86
2019-02-19T02:48:45.510Z,-0.80
2019-02-19T02:51:12.350Z,-0.73
2019-02-19T02:53:39.062Z,-0.70
2019-02-19T02:56:05.895Z,-0.66
2019-02-19T02:58:32.433Z,-0.67
2019-02-19T03:00:59.212Z,-0.66
2019-02-19T03:03:25.894Z,-0.63
2019-02-19T03:06:19.551Z,-0.61
2019-02-19T03:08:46.649Z,-0.61
2019-02-19T03:11:13.366Z,-0.60
2019-02-19T03:13:40.034Z,-0.63
2019-02-19T03:16:06.688Z,-0.62
2019-02-19T03:18:33.336Z,-0.65
2019-02-19T03:21:00.022Z,-0.65
2019-02-19T03:23:26.780Z,-0.66
2019-02-19T03:25:53.437Z,-0.61
2019-02-19T03:28:20.005Z,-0.62
2019-02-19T03:30:46.707Z,-0.63
2019-02-19T03:33:13.363Z,-0.60
2019-02-19T03:35:39.948Z,-0.62
2019-02-19T03:38:06.594Z,-0.65
2019-02-19T03:40:33.239Z,-0.69
2019-02-19T03:43:00.022Z,-0.70
2019-02-19T03:45:26.777Z,-0.72
2019-02-19T03:47:53.325Z,-0.75
2019-02-19T03:50:20.017Z,-0.76
2019-02-19T03:52:46.782Z,-0.77
2019-02-19T03:55:13.648Z,-0.75
2019-02-19T03:57:40.339Z,-0.75
2019-02-19T04:00:07.423Z,-0.72
2019-02-19T04:02:34.079Z,-0.71
2019-02-19T04:05:00.768Z,-0.69
2019-02-19T04:07:27.595Z,-0.69
2019-02-19T04:09:54.275Z,-0.70
2019-02-19T04:12:20.974Z,-0.73
2019-02-19T04:14:47.652Z,-0.70
2019-02-19T04:17:14.432Z,-0.70
2019-02-19T04:19:41.005Z,-0.67
2019-02-19T04:22:07.557Z,-0.63
2019-02-19T04:24:34.132Z,-0.63
2019-02-19T04:27:00.699Z,-0.61
2019-02-19T04:29:27.376Z,-0.61
2019-02-19T04:31:54.056Z,-0.62
2019-02-19T04:34:20.913Z,-0.62
2019-02-19T04:36:47.713Z,-0.62
2019-02-19T04:39:14.411Z,-0.65
2019-02-19T04:41:41.204Z,-0.66
2019-02-19T04:44:07.956Z,-0.65
2019-02-19T04:46:34.734Z,-0.64
2019-02-19T04:49:01.537Z,-0.66
2019-02-19T04:51:28.169Z,-0.69
2019-02-19T04:53:58.813Z,-0.69
2019-02-19T04:56:25.686Z,-0.70
2019-02-19T04:58:52.387Z,-0.74
2019-02-19T05:01:18.965Z,-0.75
2019-02-19T05:03:51.520Z,-0.79
2019-02-19T05:06:18.215Z,-0.81
2019-02-19T05:08:45.027Z,-0.85
2019-02-19T05:11:12.002Z,-0.87
2019-02-19T05:13:38.709Z,-0.93
2019-02-19T05:16:05.563Z,-0.97
2019-02-19T05:18:32.366Z,-1.00
2019-02-19T05:20:58.958Z,-1.03
2019-02-19T05:23:25.772Z,-1.05
2019-02-19T05:25:52.544Z,-1.07
2019-02-19T05:28:19.304Z,-1.14
2019-02-19T05:30:45.963Z,-1.17
2019-02-19T05:33:12.956Z,-1.21
2019-02-19T05:35:39.711Z,-1.21
2019-02-19T05:38:06.525Z,-1.24
2019-02-19T05:40:33.587Z,-1.24
2019-02-19T05:43:01.569Z,-1.25
2019-02-19T05:45:28.640Z,-1.24
2019-02-19T05:47:55.537Z,-1.23
2019-02-19T05:50:22.575Z,-1.22
2019-02-19T05:52:49.239Z,-1.22
2019-02-19T05:55:16.103Z,-1.24
2019-02-19T05:57:42.823Z,-1.27
2019-02-19T06:00:09.832Z,-1.25
2019-02-19T06:02:37.165Z,-1.22
2019-02-19T06:05:05.929Z,-1.19
2019-02-19T06:07:34.707Z,-1.16
2019-02-19T06:10:01.413Z,-1.16
2019-02-19T06:12:28.203Z,-1.15
2019-02-19T06:14:54.942Z,-1.13
2019-02-19T06:17:21.858Z,-1.14
2019-02-19T06:19:50.858Z,-1.12
2019-02-19T06:22:17.808Z,-1.11
2019-02-19T06:24:44.660Z,-1.05
2019-02-19T06:27:11.825Z,-1.01
2019-02-19T06:29:38.991Z,-0.98
2019-02-19T06:32:05.828Z,-0.97
2019-02-19T06:34:32.771Z,-0.96
2019-02-19T06:36:59.821Z,-0.93
2019-02-19T06:39:26.613Z,-0.89
2019-02-19T06:41:53.524Z,-0.87
2019-02-19T06:44:20.420Z,-0.82
2019-02-19T06:46:47.220Z,-0.77
2019-02-19T06:49:14.179Z,-0.70
2019-02-19T06:51:40.824Z,-0.66
2019-02-19T06:54:07.744Z,-0.54
2019-02-19T06:56:34.472Z,-0.53
2019-02-19T06:59:01.035Z,-0.51
2019-02-19T07:02:02.921Z,-0.45
2019-02-19T07:04:33.679Z,-0.28
2019-02-19T07:07:00.392Z,-0.13
2019-02-19T07:09:27.147Z,-0.02
2019-02-19T07:11:53.872Z,0.15
2019-02-19T07:14:20.735Z,0.33
2019-02-19T07:16:47.560Z,0.48
2019-02-19T07:19:14.343Z,0.61
2019-02-19T07:21:41.020Z,0.70
2019-02-19T07:24:07.711Z,0.84
2019-02-19T07:26:34.302Z,0.92
2019-02-19T07:29:01.192Z,1.05
2019-02-19T07:31:27.756Z,1.18
2019-02-19T07:33:54.416Z,1.29
2019-02-19T07:36:21.293Z,1.43
2019-02-19T07:38:47.927Z,1.60
2019-02-19T07:41:14.731Z,1.76
2019-02-19T07:43:41.423Z,1.93
2019-02-19T07:46:08.074Z,2.06
2019-02-19T07:48:34.805Z,2.23
2019-02-19T07:51:01.455Z,2.37
2019-02-19T07:53:28.034Z,2.39
2019-02-19T07:55:54.719Z,2.59
2019-02-19T07:58:21.402Z,2.86
2019-02-19T08:00:48.060Z,3.00
2019-02-19T08:03:14.670Z,3.14
2019-02-19T08:05:41.204Z,3.35
2019-02-19T08:08:08.048Z,3.54
2019-02-19T08:10:34.585Z,3.85
2019-02-19T08:13:01.257Z,4.26
2019-02-19T08:15:27.808Z,4.73
2019-02-19T08:17:54.474Z,5.06
2019-02-19T08:20:21.142Z,5.26
2019-02-19T08:22:49.818Z,5.32
2019-02-19T08:25:16.377Z,5.54
2019-02-19T08:27:43.118Z,5.81
2019-02-19T08:30:11.198Z,6.42
2019-02-19T08:32:38.297Z,7.04
2019-02-19T08:35:05.213Z,7.61
2019-02-19T08:37:31.894Z,7.91
2019-02-19T08:39:58.664Z,8.48
2019-02-19T08:42:25.350Z,8.96
2019-02-19T08:44:52.031Z,9.48
2019-02-19T08:47:18.793Z,9.90
2019-02-19T08:49:45.369Z,10.28
2019-02-19T08:52:12.041Z,10.76
2019-02-19T08:54:38.897Z,10.87
2019-02-19T08:57:05.584Z,11.62
2019-02-19T08:59:32.262Z,11.83
2019-02-19T09:01:59.082Z,12.58
2019-02-19T09:04:25.721Z,14.25
2019-02-19T09:06:52.616Z,15.06
2019-02-19T09:09:19.346Z,15.93
2019-02-19T09:11:46.113Z,16.73
2019-02-19T09:14:12.877Z,16.88
2019-02-19T09:16:39.610Z,15.85
2019-02-19T09:19:06.287Z,14.56
2019-02-19T09:21:32.844Z,13.38
2019-02-19T09:23:59.618Z,12.57
2019-02-19T09:26:26.193Z,12.32
2019-02-19T09:28:52.766Z,12.15
2019-02-19T09:31:19.458Z,12.03
2019-02-19T09:33:46.176Z,12.11
2019-02-19T09:36:12.967Z,12.12
2019-02-19T09:38:39.666Z,11.96
2019-02-19T09:41:06.416Z,12.20
2019-02-19T09:43:35.514Z,12.39
2019-02-19T09:46:01.567Z,12.79
2019-02-19T09:48:28.307Z,12.79
2019-02-19T09:50:54.986Z,12.63
2019-02-19T09:53:21.657Z,12.82
2019-02-19T09:55:48.233Z,12.85
2019-02-19T09:58:14.862Z,12.95
2019-02-19T10:00:41.597Z,13.07
2019-02-19T10:03:08.203Z,12.94
2019-02-19T10:05:35.081Z,13.01
2019-02-19T10:08:01.873Z,13.12
2019-02-19T10:10:28.564Z,13.63
2019-02-19T10:12:55.211Z,13.82
2019-02-19T10:15:21.887Z,13.82
2019-02-19T10:17:48.671Z,13.75
2019-02-19T10:20:15.529Z,13.85
2019-02-19T10:22:42.219Z,14.42
2019-02-19T10:25:09.376Z,14.05
2019-02-19T10:27:36.146Z,13.93
2019-02-19T10:30:03.378Z,14.23
2019-02-19T10:32:29.968Z,14.34
2019-02-19T10:34:56.799Z,14.62
2019-02-19T10:37:23.564Z,14.69
2019-02-19T10:39:50.410Z,14.64
2019-02-19T10:42:18.934Z,14.72
2019-02-19T10:44:45.842Z,15.04
2019-02-19T10:47:12.606Z,15.88
2019-02-19T10:49:39.293Z,16.20
2019-02-19T10:52:06.048Z,16.37
2019-02-19T10:54:32.906Z,16.42
2019-02-19T10:56:59.723Z,16.64
2019-02-19T10:59:26.575Z,16.49
2019-02-19T11:01:53.368Z,16.88
2019-02-19T11:04:20.090Z,17.15
2019-02-19T11:06:46.852Z,17.84
2019-02-19T11:09:13.428Z,17.24
2019-02-19T11:11:40.093Z,17.77
2019-02-19T11:14:07.798Z,18.24
2019-02-19T11:16:34.410Z,18.19
2019-02-19T11:19:01.206Z,18.10
2019-02-19T11:21:27.884Z,17.88
2019-02-19T11:23:54.696Z,17.78
2019-02-19T11:26:21.442Z,18.04
2019-02-19T11:28:48.141Z,18.21
2019-02-19T11:31:14.686Z,18.25
2019-02-19T11:33:41.360Z,18.16
2019-02-19T11:36:08.087Z,18.42
2019-02-19T11:38:34.931Z,18.19
2019-02-19T11:41:01.609Z,17.90
2019-02-19T11:43:28.413Z,17.63
2019-02-19T11:45:55.169Z,17.21
2019-02-19T11:48:21.735Z,17.11
2019-02-19T11:50:48.557Z,16.79
2019-02-19T11:53:15.234Z,17.04
2019-02-19T11:55:41.911Z,17.27
2019-02-19T11:58:08.599Z,17.58
2019-02-19T12:00:37.694Z,18.11
2019-02-19T12:03:04.587Z,18.46
2019-02-19T12:05:31.259Z,18.45
2019-02-19T12:07:58.112Z,17.76
2019-02-19T12:10:24.933Z,16.67
2019-02-19T12:12:51.848Z,16.13
2019-02-19T12:15:21.511Z,15.73
2019-02-19T12:17:48.230Z,15.25
2019-02-19T12:20:14.878Z,14.38
2019-02-19T12:22:41.693Z,13.86
2019-02-19T12:25:09.193Z,13.82
2019-02-19T12:27:35.899Z,13.85
2019-02-19T12:30:02.738Z,13.69
2019-02-19T12:32:29.418Z,13.72
2019-02-19T12:34:56.280Z,13.55
2019-02-19T12:37:23.007Z,13.51
2019-02-19T12:39:49.818Z,13.39
2019-02-19T12:42:16.531Z,13.57
2019-02-19T12:44:45.186Z,13.34
2019-02-19T12:47:11.861Z,13.36
2019-02-19T12:49:38.984Z,13.15
2019-02-19T12:52:05.842Z,13.03
2019-02-19T12:54:32.726Z,13.04
2019-02-19T12:56:59.549Z,12.99
2019-02-19T12:59:26.253Z,13.18
2019-02-19T13:01:53.012Z,13.12
2019-02-19T13:04:19.775Z,12.98
2019-02-19T13:06:46.625Z,12.94
2019-02-19T13:09:13.358Z,12.87
2019-02-19T13:11:40.148Z,12.77
2019-02-19T13:14:07.924Z,12.70
2019-02-19T13:16:34.716Z,12.57
2019-02-19T13:19:03.794Z,12.46
2019-02-19T13:21:30.071Z,12.40
2019-02-19T13:23:56.997Z,12.43
2019-02-19T13:26:23.716Z,12.39
2019-02-19T13:28:50.326Z,12.40
2019-02-19T13:31:17.147Z,12.44
2019-02-19T13:33:43.963Z,12.44
2019-02-19T13:36:10.659Z,12.40
2019-02-19T13:38:37.445Z,12.41
2019-02-19T13:41:04.108Z,12.49
2019-02-19T13:43:30.981Z,12.35
2019-02-19T13:45:57.667Z,12.43
2019-02-19T13:48:24.410Z,12.67
2019-02-19T13:50:51.166Z,12.78
2019-02-19T13:53:40.366Z,12.82
2019-02-19T13:56:07.166Z,12.94
2019-02-19T13:58:34.006Z,12.97
2019-02-19T14:01:00.785Z,13.08
2019-02-19T14:03:27.510Z,13.24
2019-02-19T14:05:54.554Z,13.16
2019-02-19T14:08:21.385Z,13.10
2019-02-19T14:10:48.170Z,12.98
2019-02-19T14:13:14.953Z,12.91
2019-02-19T14:16:04.100Z,12.70
2019-02-19T14:18:49.235Z,12.63
2019-02-19T14:21:34.173Z,12.54
2019-02-19T14:24:09.372Z,12.57
2019-02-19T14:26:47.449Z,12.57
2019-02-19T14:29:32.284Z,12.65
2019-02-19T14:32:16.755Z,12.75
2019-02-19T14:35:00.354Z,12.77
2019-02-19T14:38:04.542Z,12.79
2019-02-19T14:40:59.562Z,12.69
2019-02-19T14:43:36.367Z,12.63
2019-02-19T14:46:28.401Z,12.39
2019-02-19T14:49:17.695Z,12.39
2019-02-19T14:51:55.128Z,12.20
2019-02-19T14:54:45.828Z,12.16
2019-02-19T14:57:32.311Z,12.11
2019-02-19T15:00:14.202Z,12.06
2019-02-19T15:03:00.964Z,11.97
2019-02-19T15:05:53.460Z,11.85
2019-02-19T15:08:57.979Z,11.82
2019-02-19T15:11:39.036Z,11.71
2019-02-19T15:14:24.199Z,11.62
2019-02-19T15:17:08.872Z,11.59
2019-02-19T15:20:06.997Z,11.63
2019-02-19T15:22:51.818Z,11.64
2019-02-19T15:25:40.760Z,11.67
2019-02-19T15:28:33.200Z,11.78
2019-02-19T15:31:19.569Z,11.82
2019-02-19T15:34:06.578Z,11.81
2019-02-19T15:36:51.938Z,11.75
2019-02-19T15:39:37.309Z,11.74
2019-02-19T15:42:20.082Z,11.70
2019-02-19T15:45:05.089Z,11.62
2019-02-19T15:47:57.546Z,11.59
2019-02-19T15:50:43.986Z,11.60
2019-02-19T15:53:20.552Z,11.53
2019-02-19T15:55:59.347Z,11.47
2019-02-19T15:58:51.376Z,11.41
2019-02-19T16:01:53.994Z,11.40
2019-02-19T16:04:37.131Z,11.32
2019-02-19T16:07:14.683Z,11.31
2019-02-19T16:09:53.633Z,11.28
2019-02-19T16:12:49.260Z,11.25
2019-02-19T16:15:47.803Z,11.21
2019-02-19T16:18:31.149Z,11.13
2019-02-19T16:21:16.461Z,11.05
2019-02-19T16:24:08.490Z,10.98
2019-02-19T16:27:03.779Z,10.86
2019-02-19T16:29:56.819Z,10.66
2019-02-19T16:32:29.441Z,10.52
2019-02-19T16:35:15.991Z,10.46
2019-02-19T16:37:59.302Z,10.39
2019-02-19T16:40:57.609Z,10.27
2019-02-19T16:43:49.958Z,10.24
2019-02-19T16:46:22.792Z,10.18
2019-02-19T16:49:18.083Z,10.10
2019-02-19T16:51:57.915Z,10.02
2019-02-19T16:54:40.801Z,9.97
2019-02-19T16:57:29.830Z,9.95
2019-02-19T17:00:14.628Z,9.92
2019-02-19T17:03:03.652Z,9.87
2019-02-19T17:05:39.977Z,9.84
2019-02-19T17:08:32.912Z,9.83
2019-02-19T17:11:09.837Z,9.81
2019-02-19T17:14:04.317Z,9.79
2019-02-19T17:16:49.482Z,9.80
2019-02-19T17:19:29.263Z,9.78
2019-02-19T17:22:15.744Z,9.74
2019-02-19T17:25:08.154Z,9.70
2019-02-19T17:27:40.779Z,9.66
2019-02-19T17:30:30.328Z,9.67
2019-02-19T17:33:09.865Z,9.63
2019-02-19T17:35:58.927Z,9.62
2019-02-19T17:38:50.032Z,9.61
2019-02-19T17:41:28.993Z,9.52
2019-02-19T17:44:13.747Z,9.49
2019-02-19T17:47:08.976Z,9.49
2019-02-19T17:49:49.952Z,9.45
2019-02-19T17:52:34.853Z,9.42
2019-02-19T17:55:19.698Z,9.43
2019-02-19T17:58:08.090Z,9.42
2019-02-19T18:01:11.119Z,9.39
2019-02-19T18:03:49.324Z,9.35
2019-02-19T18:06:23.509Z,9.29
2019-02-19T18:08:57.181Z,9.26
2019-02-19T18:11:42.308Z,9.15
2019-02-19T18:14:29.726Z,8.98
2019-02-19T18:17:24.987Z,9.06
2019-02-19T18:19:51.686Z,9.03
2019-02-19T18:22:18.525Z,8.98
2019-02-19T18:24:45.801Z,8.94
2019-02-19T18:27:12.672Z,8.91
2019-02-19T18:29:39.561Z,8.91
2019-02-19T18:32:07.517Z,8.89
2019-02-19T18:34:34.366Z,8.83
2019-02-19T18:37:01.092Z,8.83
2019-02-19T18:39:27.812Z,8.80
2019-02-19T18:41:54.572Z,8.76
2019-02-19T18:44:23.603Z,8.73
2019-02-19T18:46:50.493Z,8.71
2019-02-19T18:49:18.299Z,8.68
2019-02-19T18:51:45.312Z,8.63
2019-02-19T18:54:14.544Z,8.60
2019-02-19T18:56:42.149Z,8.57
2019-02-19T18:59:08.839Z,8.50
2019-02-19T19:01:35.862Z,8.39
2019-02-19T19:04:05.019Z,8.38
2019-02-19T19:06:31.749Z,8.37
2019-02-19T19:08:58.561Z,8.31
2019-02-19T19:11:25.527Z,8.29
2019-02-19T19:13:52.366Z,8.23
2019-02-19T19:16:21.241Z,8.19
2019-02-19T19:18:48.295Z,8.11
2019-02-19T19:21:15.145Z,8.09
2019-02-19T19:23:41.968Z,8.07
2019-02-19T19:26:08.769Z,8.02
2019-02-19T19:28:35.533Z,7.96
2019-02-19T19:31:02.427Z,7.94
2019-02-19T19:33:29.209Z,7.89
2019-02-19T19:35:56.189Z,7.82
2019-02-19T19:38:22.845Z,7.73
2019-02-19T19:40:49.625Z,7.66
2019-02-19T19:43:16.435Z,7.62
2019-02-19T19:45:43.236Z,7.55
2019-02-19T19:48:10.166Z,7.47
2019-02-19T19:50:36.974Z,7.40
2019-02-19T19:53:03.944Z,7.30
2019-02-19T19:55:30.716Z,7.26
2019-02-19T19:57:57.419Z,7.18
2019-02-19T20:00:24.114Z,7.13
2019-02-19T20:02:50.934Z,7.10
2019-02-19T20:05:17.680Z,7.03
2019-02-19T20:07:44.693Z,6.95
2019-02-19T20:10:16.285Z,6.85
2019-02-19T20:12:43.170Z,6.76
2019-02-19T20:15:10.165Z,6.67
2019-02-19T20:17:37.596Z,6.63
2019-02-19T20:20:05.141Z,6.56
2019-02-19T20:22:32.105Z,6.51
2019-02-19T20:24:58.961Z,6.48
2019-02-19T20:27:25.754Z,6.39
2019-02-19T20:29:52.420Z,6.33
2019-02-19T20:32:19.334Z,6.25
2019-02-19T20:34:46.260Z,6.16
2019-02-19T20:37:12.928Z,6.05
2019-02-19T20:39:39.776Z,5.98
2019-02-19T20:42:06.577Z,5.86
2019-02-19T20:44:33.442Z,5.79
2019-02-19T20:47:00.423Z,5.72
2019-02-19T20:49:28.375Z,5.68
2019-02-19T20:51:55.245Z,5.63
2019-02-19T20:54:22.210Z,5.60
2019-02-19T20:56:49.024Z,5.55
2019-02-19T20:59:17.037Z,5.50
2019-02-19T21:01:44.869Z,5.46
2019-02-19T21:04:11.921Z,5.42
2019-02-19T21:06:38.871Z,5.38
2019-02-19T21:09:06.827Z,5.38
2019-02-19T21:11:34.238Z,5.35
2019-02-19T21:14:01.282Z,5.33
2019-02-19T21:16:28.075Z,5.30
2019-02-19T21:18:55.019Z,5.25
2019-02-19T21:21:21.971Z,5.16
2019-02-19T21:23:49.706Z,5.10
2019-02-19T21:26:16.527Z,5.01
2019-02-19T21:28:43.602Z,4.89
2019-02-19T21:31:10.477Z,4.81
2019-02-19T21:33:37.402Z,4.76
2019-02-19T21:36:04.333Z,4.70
2019-02-19T21:38:31.168Z,4.64
2019-02-19T21:40:57.871Z,4.56
2019-02-19T21:43:24.723Z,4.48
2019-02-19T21:45:51.515Z,4.43
2019-02-19T21:48:18.211Z,4.36
2019-02-19T21:50:45.142Z,4.31
2019-02-19T21:53:11.842Z,4.24
2019-02-19T21:55:44.495Z,4.19
2019-02-19T21:58:11.252Z,4.13
2019-02-19T22:00:38.004Z,4.08
2019-02-19T22:03:04.868Z,3.98
2019-02-19T22:05:31.586Z,3.89
2019-02-19T22:07:58.495Z,3.87
2019-02-19T22:10:25.468Z,3.82
2019-02-19T22:12:52.264Z,3.78
2019-02-19T22:15:19.104Z,3.73
2019-02-19T22:17:45.956Z,3.70
2019-02-19T22:20:33.582Z,3.59
2019-02-19T22:23:00.519Z,3.52
2019-02-19T22:25:27.420Z,3.44
2019-02-19T22:27:54.311Z,3.38
2019-02-19T22:30:21.159Z,3.33
2019-02-19T22:32:48.032Z,3.25
2019-02-19T22:35:14.925Z,3.21
2019-02-19T22:37:41.779Z,3.13
2019-02-19T22:40:14.610Z,3.10
2019-02-19T22:42:41.356Z,3.06
2019-02-19T22:45:08.788Z,3.01
2019-02-19T22:47:35.546Z,2.97
2019-02-19T22:50:02.606Z,2.93
2019-02-19T22:52:29.699Z,2.91
2019-02-19T22:55:22.226Z,2.88
2019-02-19T22:57:48.986Z,2.87
2019-02-19T23:00:44.173Z,2.85
2019-02-19T23:03:10.869Z,2.82
2019-02-19T23:05:37.643Z,2.76
2019-02-19T23:08:04.497Z,2.72
2019-02-19T23:10:31.192Z,2.71
2019-02-19T23:12:58.177Z,2.67
2019-02-19T23:15:25.039Z,2.64
2019-02-19T23:17:51.844Z,2.60
2019-02-19T23:20:18.483Z,2.58
2019-02-19T23:22:45.331Z,2.51
2019-02-19T23:25:12.127Z,2.45
2019-02-19T23:27:38.736Z,2.33
2019-02-19T23:30:05.843Z,2.30
2019-02-19T23:32:32.545Z,2.28
2019-02-19T23:35:30.886Z,2.26
2019-02-19T23:37:57.677Z,2.23
2019-02-19T23:40:24.491Z,2.20
2019-02-19T23:42:51.186Z,2.17
2019-02-19T23:45:18.070Z,2.11
2019-02-19T23:47:44.866Z,2.00
2019-02-19T23:50:11.679Z,2.00
2019-02-19T23:52:38.531Z,1.95
2019-02-19T23:55:05.263Z,1.92
2019-02-19T23:57:31.986Z,1.89
2019-02-19T23:59:58.762Z,1.87
